createdAt,value
2023-01-29T00:01:47.861Z,10.23
2023-01-29T00:04:52.616Z,9.80
2023-01-29T00:07:57.546Z,10.43
2023-01-29T00:11:07.196Z,11.48
2023-01-29T00:14:11.744Z,10.55
2023-01-29T00:17:16.700Z,10.43
2023-01-29T00:20:21.112Z,11.32
2023-01-29T00:23:26.120Z,11.27
2023-01-29T00:26:31.314Z,10.73
2023-01-29T00:29:35.859Z,11.15
2023-01-29T00:32:41.209Z,11.57
2023-01-29T00:35:45.650Z,12.43
2023-01-29T00:38:58.646Z,11.65
2023-01-29T00:42:21.895Z,12.23
2023-01-29T00:45:26.439Z,11.10
2023-01-29T00:48:31.259Z,11.98
2023-01-29T00:51:38.227Z,10.95
2023-01-29T00:54:42.801Z,11.88
2023-01-29T00:57:47.588Z,11.68
2023-01-29T01:00:52.333Z,11.30
2023-01-29T01:03:57.533Z,10.82
2023-01-29T01:07:02.207Z,10.18
2023-01-29T01:10:21.857Z,11.65
2023-01-29T01:13:26.517Z,11.98
2023-01-29T01:16:31.508Z,10.93
2023-01-29T01:19:36.376Z,11.45
2023-01-29T01:22:41.329Z,12.13
2023-01-29T01:25:46.678Z,11.63
2023-01-29T01:28:51.065Z,11.90
2023-01-29T01:31:55.693Z,11.98
2023-01-29T01:35:08.684Z,11.98
2023-01-29T01:38:22.113Z,12.38
2023-01-29T01:41:30.559Z,11.95
2023-01-29T01:45:08.078Z,10.85
2023-01-29T01:48:24.022Z,10.77
2023-01-29T01:51:30.613Z,12.35
2023-01-29T01:54:35.214Z,11.90
2023-01-29T01:57:42.345Z,11.32
2023-01-29T02:00:47.234Z,12.27
2023-01-29T02:04:39.527Z,11.43
2023-01-29T02:08:07.794Z,12.60
2023-01-29T02:11:13.159Z,12.57
2023-01-29T02:14:18.693Z,12.80
2023-01-29T02:17:24.112Z,12.57
2023-01-29T02:20:34.530Z,14.40
2023-01-29T02:24:01.138Z,12.05
2023-01-29T02:27:15.393Z,12.98
2023-01-29T02:30:43.292Z,12.10
2023-01-29T02:34:12.171Z,12.70
2023-01-29T02:37:16.892Z,12.90
2023-01-29T02:40:44.083Z,13.05
2023-01-29T02:44:01.799Z,12.27
2023-01-29T02:47:21.582Z,11.18
2023-01-29T02:51:04.979Z,13.35
2023-01-29T02:54:23.735Z,12.23
2023-01-29T02:57:36.225Z,13.80
2023-01-29T03:00:47.033Z,13.73
2023-01-29T03:03:56.113Z,14.20
2023-01-29T03:07:34.538Z,14.18
2023-01-29T03:11:02.144Z,13.68
2023-01-29T03:14:50.070Z,13.13
2023-01-29T03:18:12.809Z,13.50
2023-01-29T03:22:12.958Z,12.68
2023-01-29T03:25:39.518Z,13.15
2023-01-29T03:29:05.976Z,12.98
2023-01-29T03:32:14.405Z,12.57
2023-01-29T03:35:35.372Z,15.00
2023-01-29T03:38:41.041Z,13.50
2023-01-29T03:42:00.719Z,13.82
2023-01-29T03:45:33.248Z,13.65
2023-01-29T03:49:14.985Z,14.13
2023-01-29T03:52:35.640Z,13.45
2023-01-29T03:56:12.682Z,14.52
2023-01-29T03:59:38.888Z,14.82
2023-01-29T04:03:29.477Z,13.50
2023-01-29T04:06:38.905Z,14.35
2023-01-29T04:09:58.229Z,13.57
2023-01-29T04:13:09.144Z,13.68
2023-01-29T04:16:31.241Z,13.38
2023-01-29T04:19:54.566Z,15.25
2023-01-29T04:22:59.334Z,14.77
2023-01-29T04:26:08.024Z,13.48
2023-01-29T04:30:04.174Z,13.32
2023-01-29T04:33:42.343Z,13.65
2023-01-29T04:37:11.835Z,14.07
2023-01-29T04:40:28.444Z,12.73
2023-01-29T04:44:01.835Z,14.02
2023-01-29T04:47:47.108Z,13.63
2023-01-29T04:51:15.615Z,13.65
2023-01-29T04:54:38.460Z,13.50
2023-01-29T04:58:16.650Z,14.48
2023-01-29T05:01:25.774Z,14.52
2023-01-29T05:04:33.592Z,13.80
2023-01-29T05:07:40.576Z,15.48
2023-01-29T05:10:48.209Z,16.23
2023-01-29T05:13:53.450Z,17.02
2023-01-29T05:17:03.210Z,15.25
2023-01-29T05:20:10.822Z,15.70
2023-01-29T05:23:22.128Z,13.95
2023-01-29T05:26:46.247Z,15.38
2023-01-29T05:29:50.860Z,14.30
2023-01-29T05:32:55.951Z,13.90
2023-01-29T05:36:00.903Z,14.65
2023-01-29T05:39:05.450Z,14.20
2023-01-29T05:42:10.138Z,14.65
2023-01-29T05:45:14.958Z,15.70
2023-01-29T05:48:19.994Z,15.30
2023-01-29T05:51:24.772Z,15.00
2023-01-29T05:54:29.420Z,16.05
2023-01-29T05:57:33.732Z,14.98
2023-01-29T06:00:39.288Z,16.13
2023-01-29T06:03:44.613Z,16.98
2023-01-29T06:06:49.256Z,16.33
2023-01-29T06:09:54.226Z,15.43
2023-01-29T06:12:58.803Z,15.55
2023-01-29T06:16:08.488Z,16.77
2023-01-29T06:19:12.998Z,15.98
2023-01-29T06:22:17.967Z,17.67
2023-01-29T06:25:22.783Z,18.35
2023-01-29T06:28:27.788Z,16.42
2023-01-29T06:31:38.669Z,17.08
2023-01-29T06:34:43.886Z,15.60
2023-01-29T06:37:48.665Z,15.05
2023-01-29T06:40:54.818Z,17.67
2023-01-29T06:43:59.583Z,16.60
2023-01-29T06:47:04.324Z,17.27
2023-01-29T06:50:09.994Z,17.20
2023-01-29T06:53:15.080Z,16.30
2023-01-29T06:56:19.517Z,19.95
2023-01-29T06:59:24.290Z,18.88
2023-01-29T07:02:28.666Z,19.38
2023-01-29T07:05:33.037Z,20.05
2023-01-29T07:08:39.295Z,18.63
2023-01-29T07:11:43.776Z,17.45
2023-01-29T07:14:48.584Z,18.63
2023-01-29T07:18:01.596Z,16.02
2023-01-29T07:21:07.458Z,15.52
2023-01-29T07:24:12.410Z,16.63
2023-01-29T07:27:17.137Z,18.42
2023-01-29T07:30:22.149Z,17.42
2023-01-29T07:33:27.415Z,16.77
2023-01-29T07:36:32.076Z,15.55
2023-01-29T07:39:36.890Z,15.63
2023-01-29T07:42:43.957Z,16.52
2023-01-29T07:45:48.680Z,17.05
2023-01-29T07:48:53.341Z,17.55
2023-01-29T07:51:57.693Z,16.80
2023-01-29T07:55:02.198Z,16.98
2023-01-29T07:58:06.539Z,15.15
2023-01-29T08:01:11.564Z,15.38
2023-01-29T08:04:16.303Z,16.80
2023-01-29T08:07:20.722Z,16.77
2023-01-29T08:10:25.329Z,18.10
2023-01-29T08:13:30.570Z,17.55
2023-01-29T08:16:35.797Z,17.30
2023-01-29T08:19:40.446Z,15.65
2023-01-29T08:22:45.586Z,18.38
2023-01-29T08:25:50.389Z,18.38
2023-01-29T08:28:54.780Z,17.85
2023-01-29T08:31:59.561Z,17.15
2023-01-29T08:35:04.485Z,18.77
2023-01-29T08:38:10.422Z,20.08
2023-01-29T08:41:15.518Z,19.60
2023-01-29T08:44:20.100Z,19.27
2023-01-29T08:47:24.818Z,20.30
2023-01-29T08:50:30.755Z,20.48
2023-01-29T08:53:35.496Z,17.95
2023-01-29T08:56:40.185Z,17.50
2023-01-29T08:59:44.734Z,16.90
2023-01-29T09:02:49.627Z,19.58
2023-01-29T09:05:54.335Z,18.15
2023-01-29T09:08:59.066Z,18.33
2023-01-29T09:12:03.420Z,19.20
2023-01-29T09:15:09.125Z,18.67
2023-01-29T09:18:13.659Z,17.20
2023-01-29T09:21:17.929Z,19.30
2023-01-29T09:24:22.606Z,18.77
2023-01-29T09:27:27.056Z,17.70
2023-01-29T09:30:33.425Z,19.35
2023-01-29T09:33:38.077Z,16.02
2023-01-29T09:36:43.354Z,18.02
2023-01-29T09:39:47.805Z,16.55
2023-01-29T09:43:01.992Z,17.77
2023-01-29T09:46:38.385Z,16.27
2023-01-29T09:50:00.516Z,17.30
2023-01-29T09:53:25.394Z,17.33
2023-01-29T09:56:30.245Z,17.08
2023-01-29T09:59:34.904Z,17.88
2023-01-29T10:02:48.335Z,17.98
2023-01-29T10:05:59.917Z,16.63
2023-01-29T10:09:09.993Z,16.33
2023-01-29T10:12:34.286Z,14.35
2023-01-29T10:15:52.929Z,15.32
2023-01-29T10:19:17.250Z,16.25
2023-01-29T10:25:41.628Z,16.65
2023-01-29T10:28:50.741Z,17.65
2023-01-29T10:32:04.931Z,16.42
2023-01-29T10:35:30.199Z,16.92
2023-01-29T10:38:46.223Z,17.73
2023-01-29T10:42:19.789Z,14.70
2023-01-29T10:45:40.155Z,16.00
2023-01-29T10:49:16.634Z,16.33
2023-01-29T10:52:46.793Z,15.95
2023-01-29T10:56:23.230Z,16.30
2023-01-29T11:00:01.390Z,15.82
2023-01-29T11:03:29.139Z,17.63
2023-01-29T11:06:36.224Z,17.63
2023-01-29T11:10:14.743Z,16.50
2023-01-29T11:13:19.834Z,17.65
2023-01-29T11:16:25.959Z,16.98
2023-01-29T11:19:42.946Z,16.95
2023-01-29T11:22:55.747Z,16.92
2023-01-29T11:26:01.718Z,16.08
2023-01-29T11:29:44.499Z,15.05
2023-01-29T11:33:24.041Z,15.23
2023-01-29T11:36:38.503Z,14.77
2023-01-29T11:39:47.216Z,15.30
2023-01-29T11:42:53.826Z,15.80
2023-01-29T11:46:06.274Z,14.02
2023-01-29T11:49:26.898Z,15.80
2023-01-29T11:52:37.620Z,16.88
2023-01-29T11:55:50.792Z,17.33
2023-01-29T11:58:57.762Z,16.33
2023-01-29T12:02:28.296Z,16.70
2023-01-29T12:05:33.423Z,15.50
2023-01-29T12:08:40.070Z,15.20
2023-01-29T12:11:44.516Z,15.32
2023-01-29T12:15:16.111Z,15.07
2023-01-29T12:18:39.831Z,14.90
2023-01-29T12:21:55.538Z,18.60
2023-01-29T12:25:19.160Z,17.63
2023-01-29T12:28:47.907Z,19.02
2023-01-29T12:32:44.251Z,17.65
2023-01-29T12:35:57.494Z,18.08
2023-01-29T12:39:02.312Z,20.52
2023-01-29T12:42:22.628Z,20.08
2023-01-29T12:45:29.195Z,21.33
2023-01-29T12:48:39.369Z,19.90
2023-01-29T12:52:11.298Z,18.00
2023-01-29T12:55:24.986Z,19.60
2023-01-29T12:58:37.576Z,19.45
2023-01-29T13:01:56.387Z,19.23
2023-01-29T13:05:14.826Z,20.45
2023-01-29T13:08:32.493Z,20.95
2023-01-29T13:12:06.301Z,21.50
2023-01-29T13:15:38.175Z,20.25
2023-01-29T13:19:06.558Z,19.02
2023-01-29T13:22:28.052Z,21.23
2023-01-29T13:25:32.490Z,19.85
2023-01-29T13:28:37.219Z,18.60
2023-01-29T13:31:48.365Z,19.67
2023-01-29T13:34:57.263Z,18.02
2023-01-29T13:38:02.226Z,18.75
2023-01-29T13:41:08.846Z,21.50
2023-01-29T13:44:27.376Z,20.45
2023-01-29T13:47:37.519Z,21.23
2023-01-29T13:50:43.457Z,21.48
2023-01-29T13:54:03.739Z,23.23
2023-01-29T13:57:46.751Z,21.63
2023-01-29T14:00:51.376Z,20.80
2023-01-29T14:04:04.919Z,24.67
2023-01-29T14:07:49.924Z,24.33
2023-01-29T14:11:24.166Z,25.45
2023-01-29T14:14:59.687Z,23.13
2023-01-29T14:18:08.841Z,22.95
2023-01-29T14:21:16.738Z,22.02
2023-01-29T14:24:24.760Z,23.60
2023-01-29T14:27:30.413Z,23.20
2023-01-29T14:30:36.539Z,23.27
2023-01-29T14:33:43.435Z,24.60
2023-01-29T14:36:55.457Z,20.85
2023-01-29T14:40:19.351Z,22.95
2023-01-29T14:43:24.186Z,24.55
2023-01-29T14:46:35.372Z,23.50
2023-01-29T14:49:55.016Z,24.55
2023-01-29T14:53:23.287Z,30.30
2023-01-29T14:56:41.014Z,29.40
2023-01-29T15:00:13.702Z,34.45
2023-01-29T15:03:49.890Z,28.17
2023-01-29T15:07:09.487Z,28.42
2023-01-29T15:10:40.106Z,32.45
2023-01-29T15:14:12.010Z,28.85
2023-01-29T15:17:32.797Z,33.53
2023-01-29T15:20:40.833Z,32.55
2023-01-29T15:23:48.880Z,60.75
2023-01-29T15:26:54.387Z,49.47
2023-01-29T15:30:08.032Z,35.65
2023-01-29T15:33:14.734Z,32.13
2023-01-29T15:36:28.423Z,26.77
2023-01-29T15:39:43.812Z,26.53
2023-01-29T15:42:48.699Z,29.23
2023-01-29T15:46:01.646Z,27.08
2023-01-29T15:49:11.367Z,28.52
2023-01-29T15:52:22.669Z,33.47
2023-01-29T15:55:27.714Z,26.80
2023-01-29T15:58:32.825Z,24.38
2023-01-29T16:01:37.694Z,23.27
2023-01-29T16:04:43.084Z,26.40
2023-01-29T16:07:50.572Z,26.13
2023-01-29T16:11:02.637Z,24.77
2023-01-29T16:14:08.179Z,28.95
2023-01-29T16:17:36.662Z,25.10
2023-01-29T16:20:46.024Z,27.10
2023-01-29T16:24:14.018Z,25.98
2023-01-29T16:27:18.957Z,30.02
2023-01-29T16:30:27.869Z,27.65
2023-01-29T16:33:39.225Z,23.48
2023-01-29T16:36:48.296Z,28.77
2023-01-29T16:39:53.438Z,28.58
2023-01-29T16:43:28.411Z,25.15
2023-01-29T16:46:44.955Z,23.13
2023-01-29T16:49:56.744Z,21.67
2023-01-29T16:53:10.900Z,25.70
2023-01-29T16:56:15.827Z,25.60
2023-01-29T16:59:36.014Z,24.67
2023-01-29T17:02:40.933Z,27.52
2023-01-29T17:05:46.691Z,26.25
2023-01-29T17:08:52.153Z,31.17
2023-01-29T17:12:06.496Z,27.33
2023-01-29T17:15:35.371Z,24.60
2023-01-29T17:18:40.428Z,25.05
2023-01-29T17:21:45.373Z,24.02
2023-01-29T17:24:51.626Z,22.50
2023-01-29T17:27:56.573Z,23.23
2023-01-29T17:31:10.818Z,24.65
2023-01-29T17:34:17.143Z,25.48
2023-01-29T17:37:21.945Z,22.73
2023-01-29T17:40:46.389Z,23.65
2023-01-29T17:43:51.445Z,26.67
2023-01-29T17:46:56.929Z,25.77
2023-01-29T17:50:01.685Z,24.02
2023-01-29T17:53:06.464Z,22.90
2023-01-29T17:56:17.365Z,28.73
2023-01-29T17:59:33.996Z,26.05
2023-01-29T18:02:38.510Z,28.63
2023-01-29T18:05:45.738Z,28.05
2023-01-29T18:08:50.445Z,27.10
2023-01-29T18:11:55.245Z,23.20
2023-01-29T18:14:59.927Z,20.63
2023-01-29T18:18:06.559Z,23.23
2023-01-29T18:21:11.425Z,25.13
2023-01-29T18:24:17.343Z,29.13
2023-01-29T18:27:21.976Z,34.92
2023-01-29T18:30:27.777Z,47.38
2023-01-29T18:33:56.836Z,35.95
2023-01-29T18:37:01.733Z,29.50
2023-01-29T18:40:08.349Z,26.20
2023-01-29T18:43:15.052Z,36.22
2023-01-29T18:46:20.447Z,28.20
2023-01-29T18:49:25.154Z,26.52
2023-01-29T18:52:29.852Z,27.20
2023-01-29T18:55:34.935Z,29.50
2023-01-29T18:58:40.244Z,28.75
2023-01-29T19:01:46.899Z,26.67
2023-01-29T19:04:51.781Z,23.90
2023-01-29T19:07:56.739Z,26.33
2023-01-29T19:11:04.058Z,23.92
2023-01-29T19:14:08.652Z,22.02
2023-01-29T19:17:14.470Z,23.92
2023-01-29T19:20:19.857Z,24.05
2023-01-29T19:23:24.734Z,21.25
2023-01-29T19:26:33.947Z,22.58
2023-01-29T19:29:38.653Z,21.48
2023-01-29T19:32:43.632Z,22.50
2023-01-29T19:35:48.416Z,23.05
2023-01-29T19:38:52.946Z,20.90
2023-01-29T19:41:57.487Z,23.60
2023-01-29T19:45:02.034Z,22.55
2023-01-29T19:48:06.868Z,28.83
2023-01-29T19:51:13.023Z,25.50
2023-01-29T19:54:17.577Z,24.23
2023-01-29T19:57:22.597Z,21.73
2023-01-29T20:00:27.260Z,24.95
2023-01-29T20:03:32.603Z,23.23
2023-01-29T20:06:37.471Z,20.65
2023-01-29T20:09:42.306Z,23.50
2023-01-29T20:12:47.880Z,21.15
2023-01-29T20:15:53.268Z,21.38
2023-01-29T20:19:14.216Z,21.83
2023-01-29T20:22:19.750Z,21.40
2023-01-29T20:25:24.667Z,24.70
2023-01-29T20:28:29.633Z,24.55
2023-01-29T20:31:34.315Z,22.92
2023-01-29T20:34:39.121Z,21.15
2023-01-29T20:37:43.881Z,19.73
2023-01-29T20:40:49.566Z,22.05
2023-01-29T20:43:54.353Z,21.30
2023-01-29T20:47:01.714Z,24.08
2023-01-29T20:50:08.711Z,23.58
2023-01-29T20:53:13.337Z,25.38
2023-01-29T20:56:18.572Z,21.80
2023-01-29T20:59:36.394Z,22.13
2023-01-29T21:02:41.099Z,22.15
2023-01-29T21:05:45.839Z,21.70
2023-01-29T21:08:50.230Z,22.88
2023-01-29T21:11:55.656Z,23.17
2023-01-29T21:15:00.416Z,21.90
2023-01-29T21:18:06.961Z,24.60
2023-01-29T21:21:11.494Z,25.02
2023-01-29T21:24:18.848Z,24.05
2023-01-29T21:27:25.613Z,24.17
2023-01-29T21:30:30.509Z,24.05
2023-01-29T21:33:35.662Z,22.20
2023-01-29T21:36:40.247Z,26.65
2023-01-29T21:39:45.897Z,24.42
2023-01-29T21:43:08.692Z,23.73
2023-01-29T21:46:13.524Z,24.52
2023-01-29T21:49:18.159Z,22.38
2023-01-29T21:52:23.227Z,23.20
2023-01-29T21:55:28.178Z,22.13
2023-01-29T21:58:33.295Z,27.08
2023-01-29T22:01:38.893Z,25.83
2023-01-29T22:04:43.644Z,27.52
2023-01-29T22:07:49.440Z,30.23
2023-01-29T22:10:53.909Z,30.60
2023-01-29T22:13:58.764Z,28.30
2023-01-29T22:17:04.052Z,28.35
2023-01-29T22:20:13.886Z,25.15
2023-01-29T22:23:18.567Z,26.98
2023-01-29T22:26:23.560Z,27.25
2023-01-29T22:29:28.262Z,25.83
2023-01-29T22:32:33.427Z,29.30
2023-01-29T22:35:38.302Z,29.63
2023-01-29T22:38:43.435Z,27.92
2023-01-29T22:41:48.158Z,28.85
2023-01-29T22:44:52.905Z,27.77
2023-01-29T22:47:57.257Z,31.55
2023-01-29T22:51:11.080Z,35.92
2023-01-29T22:54:15.919Z,34.17
2023-01-29T22:57:20.731Z,29.88
2023-01-29T23:00:26.101Z,28.73
2023-01-29T23:03:30.831Z,30.83
2023-01-29T23:06:54.690Z,30.63
2023-01-29T23:09:59.370Z,28.17
2023-01-29T23:13:04.041Z,29.50
2023-01-29T23:16:08.966Z,31.00
2023-01-29T23:19:13.864Z,34.83
2023-01-29T23:22:18.510Z,30.95
2023-01-29T23:25:43.160Z,29.85
2023-01-29T23:31:52.602Z,28.27
2023-01-29T23:34:57.491Z,25.92
2023-01-29T23:38:02.520Z,27.15
2023-01-29T23:41:07.319Z,29.92
2023-01-29T23:44:12.159Z,29.23
2023-01-29T23:47:16.886Z,29.23
2023-01-29T23:50:21.604Z,29.95
2023-01-29T23:53:26.468Z,32.58
2023-01-29T23:56:31.005Z,31.38
2023-01-29T23:59:35.676Z,32.13
